sensor_id;sensor_type;location;lat;lon;timestamp;P1;durP1;ratioP1;P2;durP2;ratioP2
57071;SDS011;42956;51.366;11.298;2023-05-07T00:00:24;15.88;;;10.55;;
57071;SDS011;42956;51.366;11.298;2023-05-07T00:02:54;15.70;;;10.85;;
57071;SDS011;42956;51.366;11.298;2023-05-07T00:05:27;15.60;;;9.98;;
57071;SDS011;42956;51.366;11.298;2023-05-07T00:07:57;17.35;;;11.43;;
57071;SDS011;42956;51.366;11.298;2023-05-07T00:10:27;16.38;;;11.50;;
57071;SDS011;42956;51.366;11.298;2023-05-07T00:12:57;19.08;;;11.93;;
57071;SDS011;42956;51.366;11.298;2023-05-07T00:15:27;15.40;;;10.68;;
57071;SDS011;42956;51.366;11.298;2023-05-07T00:17:57;15.13;;;10.10;;
57071;SDS011;42956;51.366;11.298;2023-05-07T00:20:29;15.00;;;10.95;;
57071;SDS011;42956;51.366;11.298;2023-05-07T00:23:01;12.88;;;9.98;;
57071;SDS011;42956;51.366;11.298;2023-05-07T00:25:31;15.13;;;10.95;;
57071;SDS011;42956;51.366;11.298;2023-05-07T00:28:01;15.13;;;10.27;;
57071;SDS011;42956;51.366;11.298;2023-05-07T00:30:32;14.02;;;10.15;;
57071;SDS011;42956;51.366;11.298;2023-05-07T00:33:01;14.63;;;10.05;;
57071;SDS011;42956;51.366;11.298;2023-05-07T00:35:34;13.95;;;9.55;;
57071;SDS011;42956;51.366;11.298;2023-05-07T00:38:04;15.50;;;10.80;;
57071;SDS011;42956;51.366;11.298;2023-05-07T00:40:33;16.30;;;11.52;;
57071;SDS011;42956;51.366;11.298;2023-05-07T00:43:03;29.63;;;10.93;;
57071;SDS011;42956;51.366;11.298;2023-05-07T00:45:33;14.60;;;10.93;;
57071;SDS011;42956;51.366;11.298;2023-05-07T00:48:03;14.02;;;10.02;;
57071;SDS011;42956;51.366;11.298;2023-05-07T00:50:36;16.13;;;10.43;;
57071;SDS011;42956;51.366;11.298;2023-05-07T00:53:06;15.13;;;10.25;;
57071;SDS011;42956;51.366;11.298;2023-05-07T00:55:36;15.18;;;10.48;;
57071;SDS011;42956;51.366;11.298;2023-05-07T00:58:06;15.38;;;10.43;;
57071;SDS011;42956;51.366;11.298;2023-05-07T01:00:36;14.23;;;9.27;;
57071;SDS011;42956;51.366;11.298;2023-05-07T01:03:06;12.80;;;9.35;;
57071;SDS011;42956;51.366;11.298;2023-05-07T01:05:39;13.38;;;10.60;;
57071;SDS011;42956;51.366;11.298;2023-05-07T01:08:10;13.40;;;9.15;;
57071;SDS011;42956;51.366;11.298;2023-05-07T01:10:40;12.95;;;9.52;;
57071;SDS011;42956;51.366;11.298;2023-05-07T01:13:10;13.75;;;10.15;;
57071;SDS011;42956;51.366;11.298;2023-05-07T01:15:42;15.18;;;9.68;;
57071;SDS011;42956;51.366;11.298;2023-05-07T01:18:12;14.48;;;9.55;;
57071;SDS011;42956;51.366;11.298;2023-05-07T01:20:44;16.58;;;11.05;;
57071;SDS011;42956;51.366;11.298;2023-05-07T01:23:17;13.30;;;9.93;;
57071;SDS011;42956;51.366;11.298;2023-05-07T01:25:51;13.27;;;8.80;;
57071;SDS011;42956;51.366;11.298;2023-05-07T01:28:21;12.65;;;9.27;;
57071;SDS011;42956;51.366;11.298;2023-05-07T01:30:51;14.55;;;10.25;;
57071;SDS011;42956;51.366;11.298;2023-05-07T01:33:22;16.35;;;10.13;;
57071;SDS011;42956;51.366;11.298;2023-05-07T01:35:53;18.65;;;10.25;;
57071;SDS011;42956;51.366;11.298;2023-05-07T01:38:26;16.13;;;10.23;;
57071;SDS011;42956;51.366;11.298;2023-05-07T01:40:56;14.15;;;10.50;;
57071;SDS011;42956;51.366;11.298;2023-05-07T01:43:27;16.23;;;10.65;;
57071;SDS011;42956;51.366;11.298;2023-05-07T01:45:58;15.48;;;11.30;;
57071;SDS011;42956;51.366;11.298;2023-05-07T01:48:28;15.18;;;11.35;;
57071;SDS011;42956;51.366;11.298;2023-05-07T01:50:58;17.17;;;11.52;;
57071;SDS011;42956;51.366;11.298;2023-05-07T01:53:31;16.42;;;11.40;;
57071;SDS011;42956;51.366;11.298;2023-05-07T01:56:05;16.48;;;10.88;;
57071;SDS011;42956;51.366;11.298;2023-05-07T01:58:35;16.80;;;11.35;;
57071;SDS011;42956;51.366;11.298;2023-05-07T02:01:05;22.05;;;12.68;;
57071;SDS011;42956;51.366;11.298;2023-05-07T02:03:34;20.65;;;11.68;;
57071;SDS011;42956;51.366;11.298;2023-05-07T02:06:05;15.45;;;11.98;;
57071;SDS011;42956;51.366;11.298;2023-05-07T02:08:37;13.68;;;10.48;;
57071;SDS011;42956;51.366;11.298;2023-05-07T02:11:07;15.27;;;11.25;;
57071;SDS011;42956;51.366;11.298;2023-05-07T02:13:37;17.15;;;11.45;;
57071;SDS011;42956;51.366;11.298;2023-05-07T02:16:07;15.88;;;10.90;;
57071;SDS011;42956;51.366;11.298;2023-05-07T02:18:37;13.85;;;10.23;;
57071;SDS011;42956;51.366;11.298;2023-05-07T02:21:07;15.55;;;10.98;;
57071;SDS011;42956;51.366;11.298;2023-05-07T02:23:39;16.75;;;11.38;;
57071;SDS011;42956;51.366;11.298;2023-05-07T02:26:10;14.73;;;9.77;;
57071;SDS011;42956;51.366;11.298;2023-05-07T02:28:40;20.63;;;10.48;;
57071;SDS011;42956;51.366;11.298;2023-05-07T02:31:10;20.25;;;11.18;;
57071;SDS011;42956;51.366;11.298;2023-05-07T02:33:39;19.58;;;12.75;;
57071;SDS011;42956;51.366;11.298;2023-05-07T02:36:09;21.17;;;12.20;;
57071;SDS011;42956;51.366;11.298;2023-05-07T02:38:42;17.83;;;12.90;;
57071;SDS011;42956;51.366;11.298;2023-05-07T02:41:12;19.83;;;12.57;;
57071;SDS011;42956;51.366;11.298;2023-05-07T02:43:42;18.85;;;12.77;;
57071;SDS011;42956;51.366;11.298;2023-05-07T02:46:11;18.73;;;12.18;;
57071;SDS011;42956;51.366;11.298;2023-05-07T02:48:42;15.40;;;10.48;;
57071;SDS011;42956;51.366;11.298;2023-05-07T02:51:12;15.35;;;10.25;;
57071;SDS011;42956;51.366;11.298;2023-05-07T02:53:44;15.25;;;9.85;;
57071;SDS011;42956;51.366;11.298;2023-05-07T02:56:14;14.32;;;9.63;;
57071;SDS011;42956;51.366;11.298;2023-05-07T02:58:44;13.25;;;9.38;;
57071;SDS011;42956;51.366;11.298;2023-05-07T03:01:14;13.35;;;9.30;;
57071;SDS011;42956;51.366;11.298;2023-05-07T03:03:44;16.27;;;9.63;;
57071;SDS011;42956;51.366;11.298;2023-05-07T03:06:14;15.35;;;9.05;;
57071;SDS011;42956;51.366;11.298;2023-05-07T03:08:46;15.20;;;9.88;;
57071;SDS011;42956;51.366;11.298;2023-05-07T03:11:16;20.98;;;10.45;;
57071;SDS011;42956;51.366;11.298;2023-05-07T03:13:46;20.25;;;10.05;;
57071;SDS011;42956;51.366;11.298;2023-05-07T03:16:17;17.58;;;10.52;;
57071;SDS011;42956;51.366;11.298;2023-05-07T03:18:47;16.98;;;10.57;;
57071;SDS011;42956;51.366;11.298;2023-05-07T03:21:17;16.98;;;10.30;;
57071;SDS011;42956;51.366;11.298;2023-05-07T03:23:49;17.27;;;10.70;;
57071;SDS011;42956;51.366;11.298;2023-05-07T03:26:19;15.43;;;10.30;;
57071;SDS011;42956;51.366;11.298;2023-05-07T03:28:48;15.10;;;10.23;;
57071;SDS011;42956;51.366;11.298;2023-05-07T03:31:18;16.25;;;10.82;;
57071;SDS011;42956;51.366;11.298;2023-05-07T03:33:51;19.38;;;10.80;;
57071;SDS011;42956;51.366;11.298;2023-05-07T03:38:54;18.75;;;10.73;;
57071;SDS011;42956;51.366;11.298;2023-05-07T03:41:24;27.38;;;12.00;;
57071;SDS011;42956;51.366;11.298;2023-05-07T03:43:54;18.63;;;11.43;;
57071;SDS011;42956;51.366;11.298;2023-05-07T03:46:24;20.15;;;11.73;;
57071;SDS011;42956;51.366;11.298;2023-05-07T03:48:55;17.42;;;12.07;;
57071;SDS011;42956;51.366;11.298;2023-05-07T03:51:24;17.20;;;11.70;;
57071;SDS011;42956;51.366;11.298;2023-05-07T03:53:57;21.85;;;12.18;;
57071;SDS011;42956;51.366;11.298;2023-05-07T03:56:27;16.90;;;12.40;;
57071;SDS011;42956;51.366;11.298;2023-05-07T03:58:58;18.13;;;12.20;;
57071;SDS011;42956;51.366;11.298;2023-05-07T04:01:27;18.50;;;11.30;;
57071;SDS011;42956;51.366;11.298;2023-05-07T04:03:58;19.95;;;12.10;;
57071;SDS011;42956;51.366;11.298;2023-05-07T04:06:28;19.80;;;12.05;;
57071;SDS011;42956;51.366;11.298;2023-05-07T04:09:00;20.48;;;12.88;;
57071;SDS011;42956;51.366;11.298;2023-05-07T04:11:30;22.48;;;12.43;;
57071;SDS011;42956;51.366;11.298;2023-05-07T04:13:59;19.15;;;11.98;;
57071;SDS011;42956;51.366;11.298;2023-05-07T04:16:29;18.65;;;11.18;;
57071;SDS011;42956;51.366;11.298;2023-05-07T04:18:59;14.25;;;11.05;;
57071;SDS011;42956;51.366;11.298;2023-05-07T04:21:29;16.83;;;11.25;;
57071;SDS011;42956;51.366;11.298;2023-05-07T04:24:02;14.55;;;10.95;;
57071;SDS011;42956;51.366;11.298;2023-05-07T04:26:32;15.85;;;10.27;;
57071;SDS011;42956;51.366;11.298;2023-05-07T04:29:02;20.33;;;10.15;;
57071;SDS011;42956;51.366;11.298;2023-05-07T04:31:32;15.60;;;10.55;;
57071;SDS011;42956;51.366;11.298;2023-05-07T04:34:02;17.23;;;10.63;;
57071;SDS011;42956;51.366;11.298;2023-05-07T04:36:32;14.38;;;10.02;;
57071;SDS011;42956;51.366;11.298;2023-05-07T04:39:04;17.42;;;10.57;;
57071;SDS011;42956;51.366;11.298;2023-05-07T04:41:35;14.50;;;10.57;;
57071;SDS011;42956;51.366;11.298;2023-05-07T04:44:05;17.23;;;10.13;;
57071;SDS011;42956;51.366;11.298;2023-05-07T04:46:36;17.15;;;11.50;;
57071;SDS011;42956;51.366;11.298;2023-05-07T04:49:05;15.93;;;10.90;;
57071;SDS011;42956;51.366;11.298;2023-05-07T04:51:35;16.20;;;10.10;;
57071;SDS011;42956;51.366;11.298;2023-05-07T04:54:07;19.60;;;10.50;;
57071;SDS011;42956;51.366;11.298;2023-05-07T04:56:37;14.95;;;11.27;;
57071;SDS011;42956;51.366;11.298;2023-05-07T04:59:08;15.73;;;10.93;;
57071;SDS011;42956;51.366;11.298;2023-05-07T05:01:38;15.25;;;10.32;;
57071;SDS011;42956;51.366;11.298;2023-05-07T05:04:08;16.00;;;10.20;;
57071;SDS011;42956;51.366;11.298;2023-05-07T05:06:38;16.02;;;11.23;;
57071;SDS011;42956;51.366;11.298;2023-05-07T05:09:10;14.23;;;9.57;;
57071;SDS011;42956;51.366;11.298;2023-05-07T05:11:41;13.88;;;11.40;;
57071;SDS011;42956;51.366;11.298;2023-05-07T05:14:10;20.00;;;11.82;;
57071;SDS011;42956;51.366;11.298;2023-05-07T05:16:40;17.63;;;12.10;;
57071;SDS011;42956;51.366;11.298;2023-05-07T05:19:10;17.50;;;12.40;;
57071;SDS011;42956;51.366;11.298;2023-05-07T05:21:40;21.73;;;13.43;;
57071;SDS011;42956;51.366;11.298;2023-05-07T05:24:12;20.85;;;12.15;;
57071;SDS011;42956;51.366;11.298;2023-05-07T05:26:42;20.38;;;13.20;;
57071;SDS011;42956;51.366;11.298;2023-05-07T05:29:11;20.30;;;13.18;;
57071;SDS011;42956;51.366;11.298;2023-05-07T05:31:41;17.98;;;12.43;;
57071;SDS011;42956;51.366;11.298;2023-05-07T05:34:11;20.27;;;13.18;;
57071;SDS011;42956;51.366;11.298;2023-05-07T05:36:41;18.17;;;12.50;;
57071;SDS011;42956;51.366;11.298;2023-05-07T05:39:13;19.60;;;12.32;;
57071;SDS011;42956;51.366;11.298;2023-05-07T05:41:43;17.48;;;13.85;;
57071;SDS011;42956;51.366;11.298;2023-05-07T05:44:13;17.70;;;12.10;;
57071;SDS011;42956;51.366;11.298;2023-05-07T05:46:43;19.65;;;12.77;;
57071;SDS011;42956;51.366;11.298;2023-05-07T05:49:13;20.30;;;13.07;;
57071;SDS011;42956;51.366;11.298;2023-05-07T05:51:43;20.60;;;12.68;;
57071;SDS011;42956;51.366;11.298;2023-05-07T05:54:15;19.60;;;13.70;;
57071;SDS011;42956;51.366;11.298;2023-05-07T05:56:45;20.65;;;13.52;;
57071;SDS011;42956;51.366;11.298;2023-05-07T05:59:15;23.25;;;14.70;;
57071;SDS011;42956;51.366;11.298;2023-05-07T06:01:45;19.65;;;14.35;;
57071;SDS011;42956;51.366;11.298;2023-05-07T06:04:15;26.80;;;15.93;;
57071;SDS011;42956;51.366;11.298;2023-05-07T06:06:45;20.95;;;14.57;;
57071;SDS011;42956;51.366;11.298;2023-05-07T06:09:17;21.90;;;13.80;;
57071;SDS011;42956;51.366;11.298;2023-05-07T06:11:47;23.27;;;14.95;;
57071;SDS011;42956;51.366;11.298;2023-05-07T06:14:17;19.45;;;14.18;;
57071;SDS011;42956;51.366;11.298;2023-05-07T06:16:46;24.65;;;14.52;;
57071;SDS011;42956;51.366;11.298;2023-05-07T06:19:16;22.42;;;14.02;;
57071;SDS011;42956;51.366;11.298;2023-05-07T06:24:22;23.67;;;14.13;;
57071;SDS011;42956;51.366;11.298;2023-05-07T06:26:51;21.88;;;15.05;;
57071;SDS011;42956;51.366;11.298;2023-05-07T06:29:22;20.58;;;13.73;;
57071;SDS011;42956;51.366;11.298;2023-05-07T06:31:52;20.30;;;13.98;;
57071;SDS011;42956;51.366;11.298;2023-05-07T06:34:22;22.70;;;15.05;;
57071;SDS011;42956;51.366;11.298;2023-05-07T06:36:52;20.50;;;14.60;;
57071;SDS011;42956;51.366;11.298;2023-05-07T06:39:25;22.98;;;14.38;;
57071;SDS011;42956;51.366;11.298;2023-05-07T06:41:55;19.25;;;13.38;;
57071;SDS011;42956;51.366;11.298;2023-05-07T06:44:25;19.60;;;14.18;;
57071;SDS011;42956;51.366;11.298;2023-05-07T06:46:55;25.60;;;14.25;;
57071;SDS011;42956;51.366;11.298;2023-05-07T06:49:26;18.95;;;13.73;;
57071;SDS011;42956;51.366;11.298;2023-05-07T06:51:55;20.73;;;13.85;;
57071;SDS011;42956;51.366;11.298;2023-05-07T06:54:28;18.35;;;13.00;;
57071;SDS011;42956;51.366;11.298;2023-05-07T06:56:58;26.52;;;13.63;;
57071;SDS011;42956;51.366;11.298;2023-05-07T06:59:28;18.50;;;12.88;;
57071;SDS011;42956;51.366;11.298;2023-05-07T07:01:58;18.65;;;12.25;;
57071;SDS011;42956;51.366;11.298;2023-05-07T07:04:27;18.58;;;12.23;;
57071;SDS011;42956;51.366;11.298;2023-05-07T07:06:57;19.00;;;13.07;;
57071;SDS011;42956;51.366;11.298;2023-05-07T07:09:29;27.08;;;13.32;;
57071;SDS011;42956;51.366;11.298;2023-05-07T07:11:59;20.35;;;13.57;;
57071;SDS011;42956;51.366;11.298;2023-05-07T07:14:29;19.00;;;13.55;;
57071;SDS011;42956;51.366;11.298;2023-05-07T07:16:59;19.23;;;14.23;;
57071;SDS011;42956;51.366;11.298;2023-05-07T07:19:29;23.35;;;13.45;;
57071;SDS011;42956;51.366;11.298;2023-05-07T07:21:59;17.42;;;13.00;;
57071;SDS011;42956;51.366;11.298;2023-05-07T07:24:31;19.23;;;13.52;;
57071;SDS011;42956;51.366;11.298;2023-05-07T07:27:01;20.85;;;13.85;;
57071;SDS011;42956;51.366;11.298;2023-05-07T07:29:31;18.65;;;12.80;;
57071;SDS011;42956;51.366;11.298;2023-05-07T07:32:01;21.42;;;14.55;;
57071;SDS011;42956;51.366;11.298;2023-05-07T07:34:31;20.30;;;13.75;;
57071;SDS011;42956;51.366;11.298;2023-05-07T07:37:01;23.02;;;14.73;;
57071;SDS011;42956;51.366;11.298;2023-05-07T07:39:35;23.25;;;14.48;;
57071;SDS011;42956;51.366;11.298;2023-05-07T07:42:06;21.40;;;15.05;;
57071;SDS011;42956;51.366;11.298;2023-05-07T07:44:36;19.75;;;14.05;;
57071;SDS011;42956;51.366;11.298;2023-05-07T07:47:06;21.60;;;14.63;;
57071;SDS011;42956;51.366;11.298;2023-05-07T07:49:36;21.48;;;14.02;;
57071;SDS011;42956;51.366;11.298;2023-05-07T07:52:06;18.80;;;13.68;;
57071;SDS011;42956;51.366;11.298;2023-05-07T07:54:39;17.42;;;13.18;;
57071;SDS011;42956;51.366;11.298;2023-05-07T07:57:09;21.75;;;14.07;;
57071;SDS011;42956;51.366;11.298;2023-05-07T07:59:38;18.42;;;13.13;;
57071;SDS011;42956;51.366;11.298;2023-05-07T08:02:10;17.65;;;11.23;;
57071;SDS011;42956;51.366;11.298;2023-05-07T08:04:40;18.27;;;11.85;;
57071;SDS011;42956;51.366;11.298;2023-05-07T08:07:10;18.55;;;13.30;;
57071;SDS011;42956;51.366;11.298;2023-05-07T08:09:42;20.42;;;12.65;;
57071;SDS011;42956;51.366;11.298;2023-05-07T08:12:13;18.92;;;11.90;;
57071;SDS011;42956;51.366;11.298;2023-05-07T08:14:42;24.92;;;10.80;;
57071;SDS011;42956;51.366;11.298;2023-05-07T08:17:12;18.05;;;11.93;;
57071;SDS011;42956;51.366;11.298;2023-05-07T08:19:42;20.13;;;11.90;;
57071;SDS011;42956;51.366;11.298;2023-05-07T08:22:12;17.48;;;11.98;;
57071;SDS011;42956;51.366;11.298;2023-05-07T08:24:45;16.20;;;11.90;;
57071;SDS011;42956;51.366;11.298;2023-05-07T08:27:14;17.88;;;12.40;;
57071;SDS011;42956;51.366;11.298;2023-05-07T08:29:44;17.65;;;12.40;;
57071;SDS011;42956;51.366;11.298;2023-05-07T08:32:15;18.40;;;12.88;;
57071;SDS011;42956;51.366;11.298;2023-05-07T08:34:45;20.50;;;12.95;;
57071;SDS011;42956;51.366;11.298;2023-05-07T08:37:15;21.65;;;13.85;;
57071;SDS011;42956;51.366;11.298;2023-05-07T08:39:47;19.65;;;14.13;;
57071;SDS011;42956;51.366;11.298;2023-05-07T08:42:17;23.27;;;14.60;;
57071;SDS011;42956;51.366;11.298;2023-05-07T08:44:48;21.20;;;14.25;;
57071;SDS011;42956;51.366;11.298;2023-05-07T08:47:20;21.50;;;13.73;;
57071;SDS011;42956;51.366;11.298;2023-05-07T08:49:52;16.33;;;13.27;;
57071;SDS011;42956;51.366;11.298;2023-05-07T08:52:23;23.30;;;13.13;;
57071;SDS011;42956;51.366;11.298;2023-05-07T08:54:55;19.75;;;14.43;;
57071;SDS011;42956;51.366;11.298;2023-05-07T08:57:25;22.98;;;13.77;;
57071;SDS011;42956;51.366;11.298;2023-05-07T08:59:56;21.40;;;15.27;;
57071;SDS011;42956;51.366;11.298;2023-05-07T09:02:25;22.77;;;15.13;;
57071;SDS011;42956;51.366;11.298;2023-05-07T09:04:55;19.90;;;13.65;;
57071;SDS011;42956;51.366;11.298;2023-05-07T09:07:25;22.73;;;13.90;;
57071;SDS011;42956;51.366;11.298;2023-05-07T09:10:01;17.95;;;12.45;;
57071;SDS011;42956;51.366;11.298;2023-05-07T09:12:31;18.35;;;13.30;;
57071;SDS011;42956;51.366;11.298;2023-05-07T09:15:03;17.90;;;12.95;;
57071;SDS011;42956;51.366;11.298;2023-05-07T09:17:33;17.77;;;14.00;;
57071;SDS011;42956;51.366;11.298;2023-05-07T09:20:03;18.00;;;12.57;;
57071;SDS011;42956;51.366;11.298;2023-05-07T09:22:36;17.63;;;12.27;;
57071;SDS011;42956;51.366;11.298;2023-05-07T09:25:09;18.33;;;12.70;;
57071;SDS011;42956;51.366;11.298;2023-05-07T09:27:48;19.35;;;11.68;;
57071;SDS011;42956;51.366;11.298;2023-05-07T09:30:18;16.60;;;11.75;;
57071;SDS011;42956;51.366;11.298;2023-05-07T09:32:48;16.88;;;11.40;;
57071;SDS011;42956;51.366;11.298;2023-05-07T09:35:18;16.92;;;12.40;;
57071;SDS011;42956;51.366;11.298;2023-05-07T09:37:48;15.80;;;12.70;;
57071;SDS011;42956;51.366;11.298;2023-05-07T09:40:24;18.63;;;12.27;;
57071;SDS011;42956;51.366;11.298;2023-05-07T09:42:54;16.20;;;12.15;;
57071;SDS011;42956;51.366;11.298;2023-05-07T09:45:24;17.80;;;12.18;;
57071;SDS011;42956;51.366;11.298;2023-05-07T09:47:55;20.98;;;12.35;;
57071;SDS011;42956;51.366;11.298;2023-05-07T09:50:25;21.80;;;13.98;;
57071;SDS011;42956;51.366;11.298;2023-05-07T09:52:56;16.92;;;12.38;;
57071;SDS011;42956;51.366;11.298;2023-05-07T09:55:28;20.88;;;12.57;;
57071;SDS011;42956;51.366;11.298;2023-05-07T09:57:58;17.23;;;12.35;;
57071;SDS011;42956;51.366;11.298;2023-05-07T10:00:29;19.98;;;12.35;;
57071;SDS011;42956;51.366;11.298;2023-05-07T10:02:59;20.02;;;13.18;;
57071;SDS011;42956;51.366;11.298;2023-05-07T10:05:31;20.92;;;13.82;;
57071;SDS011;42956;51.366;11.298;2023-05-07T10:08:01;16.88;;;12.85;;
57071;SDS011;42956;51.366;11.298;2023-05-07T10:10:34;21.85;;;13.63;;
57071;SDS011;42956;51.366;11.298;2023-05-07T10:13:05;19.23;;;13.68;;
57071;SDS011;42956;51.366;11.298;2023-05-07T10:15:37;15.32;;;12.02;;
57071;SDS011;42956;51.366;11.298;2023-05-07T10:18:07;17.27;;;13.38;;
57071;SDS011;42956;51.366;11.298;2023-05-07T10:20:38;16.63;;;11.80;;
57071;SDS011;42956;51.366;11.298;2023-05-07T10:23:08;22.35;;;14.98;;
57071;SDS011;42956;51.366;11.298;2023-05-07T10:25:44;17.48;;;13.30;;
57071;SDS011;42956;51.366;11.298;2023-05-07T10:28:14;15.18;;;11.60;;
57071;SDS011;42956;51.366;11.298;2023-05-07T10:30:49;15.55;;;11.07;;
57071;SDS011;42956;51.366;11.298;2023-05-07T10:33:24;15.23;;;10.82;;
57071;SDS011;42956;51.366;11.298;2023-05-07T10:35:56;16.55;;;12.35;;
57071;SDS011;42956;51.366;11.298;2023-05-07T10:38:27;14.73;;;11.43;;
57071;SDS011;42956;51.366;11.298;2023-05-07T10:40:59;15.00;;;10.70;;
57071;SDS011;42956;51.366;11.298;2023-05-07T10:43:38;13.20;;;10.35;;
57071;SDS011;42956;51.366;11.298;2023-05-07T10:46:13;13.80;;;10.75;;
57071;SDS011;42956;51.366;11.298;2023-05-07T10:51:29;13.48;;;10.25;;
57071;SDS011;42956;51.366;11.298;2023-05-07T10:56:47;14.13;;;10.57;;
57071;SDS011;42956;51.366;11.298;2023-05-07T10:59:31;16.98;;;13.05;;
57071;SDS011;42956;51.366;11.298;2023-05-07T11:02:02;13.27;;;10.90;;
57071;SDS011;42956;51.366;11.298;2023-05-07T11:04:33;11.85;;;9.45;;
57071;SDS011;42956;51.366;11.298;2023-05-07T11:09:59;17.23;;;12.38;;
57071;SDS011;42956;51.366;11.298;2023-05-07T11:18:03;14.55;;;9.73;;
57071;SDS011;42956;51.366;11.298;2023-05-07T11:20:46;11.32;;;9.02;;
57071;SDS011;42956;51.366;11.298;2023-05-07T11:26:03;15.23;;;9.93;;
57071;SDS011;42956;51.366;11.298;2023-05-07T11:28:36;11.85;;;9.63;;
57071;SDS011;42956;51.366;11.298;2023-05-07T11:31:06;11.98;;;9.57;;
57071;SDS011;42956;51.366;11.298;2023-05-07T11:33:39;12.55;;;8.98;;
57071;SDS011;42956;51.366;11.298;2023-05-07T11:36:09;10.82;;;8.13;;
57071;SDS011;42956;51.366;11.298;2023-05-07T11:38:39;10.32;;;8.45;;
57071;SDS011;42956;51.366;11.298;2023-05-07T11:41:09;11.57;;;7.75;;
57071;SDS011;42956;51.366;11.298;2023-05-07T11:43:41;8.40;;;7.35;;
57071;SDS011;42956;51.366;11.298;2023-05-07T11:46:22;8.07;;;6.72;;
57071;SDS011;42956;51.366;11.298;2023-05-07T11:48:54;7.78;;;6.30;;
57071;SDS011;42956;51.366;11.298;2023-05-07T11:51:25;12.95;;;7.90;;
57071;SDS011;42956;51.366;11.298;2023-05-07T11:53:55;9.43;;;7.97;;
57071;SDS011;42956;51.366;11.298;2023-05-07T11:56:25;11.43;;;9.00;;
57071;SDS011;42956;51.366;11.298;2023-05-07T11:58:55;9.60;;;8.05;;
57071;SDS011;42956;51.366;11.298;2023-05-07T12:01:25;8.43;;;7.25;;
57071;SDS011;42956;51.366;11.298;2023-05-07T12:03:57;11.43;;;8.13;;
57071;SDS011;42956;51.366;11.298;2023-05-07T12:06:27;9.93;;;8.55;;
57071;SDS011;42956;51.366;11.298;2023-05-07T12:08:57;9.80;;;8.27;;
57071;SDS011;42956;51.366;11.298;2023-05-07T12:11:27;8.73;;;7.75;;
57071;SDS011;42956;51.366;11.298;2023-05-07T12:13:57;7.32;;;6.63;;
57071;SDS011;42956;51.366;11.298;2023-05-07T12:16:27;8.18;;;6.80;;
57071;SDS011;42956;51.366;11.298;2023-05-07T12:18:59;7.70;;;6.90;;
57071;SDS011;42956;51.366;11.298;2023-05-07T12:21:29;9.02;;;7.47;;
57071;SDS011;42956;51.366;11.298;2023-05-07T12:23:59;7.85;;;7.07;;
57071;SDS011;42956;51.366;11.298;2023-05-07T12:26:29;8.30;;;7.00;;
57071;SDS011;42956;51.366;11.298;2023-05-07T12:28:59;7.43;;;6.65;;
57071;SDS011;42956;51.366;11.298;2023-05-07T12:31:29;9.85;;;7.53;;
57071;SDS011;42956;51.366;11.298;2023-05-07T12:34:02;7.55;;;6.53;;
57071;SDS011;42956;51.366;11.298;2023-05-07T12:36:41;7.32;;;6.38;;
57071;SDS011;42956;51.366;11.298;2023-05-07T12:39:11;8.05;;;6.07;;
57071;SDS011;42956;51.366;11.298;2023-05-07T12:41:53;7.22;;;6.05;;
57071;SDS011;42956;51.366;11.298;2023-05-07T12:44:25;6.45;;;5.15;;
57071;SDS011;42956;51.366;11.298;2023-05-07T12:46:55;8.25;;;6.07;;
57071;SDS011;42956;51.366;11.298;2023-05-07T12:49:36;9.35;;;5.95;;
57071;SDS011;42956;51.366;11.298;2023-05-07T12:52:07;8.38;;;7.43;;
57071;SDS011;42956;51.366;11.298;2023-05-07T12:54:37;7.95;;;6.78;;
57071;SDS011;42956;51.366;11.298;2023-05-07T12:57:09;8.45;;;6.80;;
57071;SDS011;42956;51.366;11.298;2023-05-07T12:59:39;7.35;;;6.57;;
57071;SDS011;42956;51.366;11.298;2023-05-07T13:02:09;7.07;;;6.38;;
57071;SDS011;42956;51.366;11.298;2023-05-07T13:04:41;12.13;;;6.32;;
57071;SDS011;42956;51.366;11.298;2023-05-07T13:07:11;7.00;;;6.10;;
57071;SDS011;42956;51.366;11.298;2023-05-07T13:09:41;5.32;;;4.82;;
57071;SDS011;42956;51.366;11.298;2023-05-07T13:12:11;6.47;;;5.80;;
57071;SDS011;42956;51.366;11.298;2023-05-07T13:14:41;6.15;;;5.28;;
57071;SDS011;42956;51.366;11.298;2023-05-07T13:17:11;6.28;;;5.65;;
57071;SDS011;42956;51.366;11.298;2023-05-07T13:19:43;6.30;;;4.95;;
57071;SDS011;42956;51.366;11.298;2023-05-07T13:22:13;5.72;;;5.00;;
57071;SDS011;42956;51.366;11.298;2023-05-07T13:24:43;6.30;;;5.22;;
57071;SDS011;42956;51.366;11.298;2023-05-07T13:27:13;6.43;;;5.10;;
57071;SDS011;42956;51.366;11.298;2023-05-07T13:29:43;5.50;;;4.85;;
57071;SDS011;42956;51.366;11.298;2023-05-07T13:32:12;6.40;;;4.93;;
57071;SDS011;42956;51.366;11.298;2023-05-07T13:34:45;6.40;;;4.53;;
57071;SDS011;42956;51.366;11.298;2023-05-07T13:37:14;6.00;;;4.50;;
57071;SDS011;42956;51.366;11.298;2023-05-07T13:39:44;5.28;;;4.78;;
57071;SDS011;42956;51.366;11.298;2023-05-07T13:42:15;5.75;;;4.57;;
57071;SDS011;42956;51.366;11.298;2023-05-07T13:44:45;7.25;;;5.65;;
57071;SDS011;42956;51.366;11.298;2023-05-07T13:47:14;6.25;;;5.57;;
57071;SDS011;42956;51.366;11.298;2023-05-07T13:49:47;6.85;;;5.35;;
57071;SDS011;42956;51.366;11.298;2023-05-07T13:52:18;6.63;;;5.68;;
57071;SDS011;42956;51.366;11.298;2023-05-07T13:54:48;6.30;;;5.70;;
57071;SDS011;42956;51.366;11.298;2023-05-07T13:57:19;8.85;;;5.47;;
57071;SDS011;42956;51.366;11.298;2023-05-07T13:59:48;8.93;;;5.85;;
57071;SDS011;42956;51.366;11.298;2023-05-07T14:02:18;7.35;;;5.75;;
57071;SDS011;42956;51.366;11.298;2023-05-07T14:04:51;6.95;;;5.85;;
57071;SDS011;42956;51.366;11.298;2023-05-07T14:07:21;7.80;;;6.05;;
57071;SDS011;42956;51.366;11.298;2023-05-07T14:09:51;7.60;;;6.40;;
57071;SDS011;42956;51.366;11.298;2023-05-07T14:12:21;6.57;;;5.78;;
57071;SDS011;42956;51.366;11.298;2023-05-07T14:14:51;8.95;;;5.70;;
57071;SDS011;42956;51.366;11.298;2023-05-07T14:17:21;5.70;;;5.10;;
57071;SDS011;42956;51.366;11.298;2023-05-07T14:19:56;6.82;;;5.47;;
57071;SDS011;42956;51.366;11.298;2023-05-07T14:24:56;8.43;;;5.35;;
57071;SDS011;42956;51.366;11.298;2023-05-07T14:27:32;7.03;;;5.68;;
57071;SDS011;42956;51.366;11.298;2023-05-07T14:30:02;7.45;;;6.00;;
57071;SDS011;42956;51.366;11.298;2023-05-07T14:32:32;8.18;;;5.82;;
57071;SDS011;42956;51.366;11.298;2023-05-07T14:35:05;6.65;;;5.95;;
57071;SDS011;42956;51.366;11.298;2023-05-07T14:40:06;6.43;;;5.22;;
57071;SDS011;42956;51.366;11.298;2023-05-07T14:42:36;8.35;;;5.90;;
57071;SDS011;42956;51.366;11.298;2023-05-07T14:45:07;8.00;;;6.03;;
57071;SDS011;42956;51.366;11.298;2023-05-07T14:47:37;7.25;;;5.78;;
57071;SDS011;42956;51.366;11.298;2023-05-07T14:50:09;7.28;;;5.78;;
57071;SDS011;42956;51.366;11.298;2023-05-07T14:52:39;6.90;;;5.38;;
57071;SDS011;42956;51.366;11.298;2023-05-07T14:55:09;7.75;;;5.30;;
57071;SDS011;42956;51.366;11.298;2023-05-07T14:57:39;7.82;;;6.32;;
57071;SDS011;42956;51.366;11.298;2023-05-07T15:00:09;7.22;;;6.13;;
57071;SDS011;42956;51.366;11.298;2023-05-07T15:02:39;9.23;;;6.55;;